Terminal Aerodrome Forecast
Issued by NWS

Home | Current Version | Previous Version | Graphics & Text | Print | Product List | Glossary On
Versions: 1 2 3 4 5 6 7 8 9 10 11 12 13 14 15 16 17 18 19 20 21
000
FTUS41 KCLE 120500
TAFFDY
TAF
KFDY 120536Z 1206/1306 34008KT P6SM OVC025
     FM121000 36005KT P6SM OVC012
     FM121500 04008KT P6SM OVC025
     FM121800 05009KT P6SM OVC050
     FM122200 05009KT P6SM SCT045 OVC100
     FM130000 06009KT P6SM SCT050 BKN120
     FM130500 07007KT P6SM -SHRA OVC045=

USA.gov is the U.S. government's official web portal to all federal, state and local government web resources and services.